Time;durP1;ratioP1;P1;durP2;ratioP2;P2;SDS_P1;SDS_P2;PMS_P1;PMS_P2;Temp;Humidity;BMP_temperature;BMP_pressure;BME280_temperature;BME280_humidity;BME280_pressure;Samples;Min_cycle;Max_cycle;Signal;HPM_P1;HPM_P2
2022/04/22 00:01:47;;;;;;;5.10;1.70;;;18.90;99.90;;;;;;5074292;28;20181;-67
2022/04/22 00:04:15;;;;;;;8.57;1.50;;;18.90;99.90;;;;;;5074184;28;20187;-68
2022/04/22 00:06:42;;;;;;;6.43;1.90;;;18.90;99.90;;;;;;5074001;28;20180;-67
2022/04/22 00:09:10;;;;;;;5.20;1.67;;;18.90;99.90;;;;;;5073450;28;20554;-67
2022/04/22 00:11:38;;;;;;;6.17;1.33;;;18.90;99.90;;;;;;5073374;28;20661;-67
2022/04/22 00:14:06;;;;;;;8.97;1.73;;;19.10;99.90;;;;;;5073848;28;20175;-67
2022/04/22 00:16:34;;;;;;;8.17;1.47;;;19.30;99.90;;;;;;5073292;28;20365;-66
2022/04/22 00:19:02;;;;;;;6.43;1.60;;;19.40;99.90;;;;;;5073673;28;20219;-68
2022/04/22 00:21:29;;;;;;;5.13;1.50;;;19.50;99.90;;;;;;5073877;28;20195;-67
2022/04/22 00:23:57;;;;;;;12.60;1.80;;;19.50;99.90;;;;;;5073659;28;20538;-67
2022/04/22 00:26:25;;;;;;;6.73;1.40;;;19.70;99.90;;;;;;5073719;28;20184;-67
2022/04/22 00:28:53;;;;;;;5.53;1.73;;;19.70;99.90;;;;;;5073163;28;20726;-66
2022/04/22 00:31:20;;;;;;;12.77;1.90;;;19.70;99.90;;;;;;5073401;28;20183;-67
2022/04/22 00:33:48;;;;;;;5.73;1.57;;;19.70;99.90;;;;;;5073168;28;20284;-67
2022/04/22 00:36:16;;;;;;;12.67;1.80;;;19.70;99.90;;;;;;5072727;28;20220;-67
2022/04/22 00:38:43;;;;;;;7.70;1.60;;;19.70;99.90;;;;;;5072599;28;20176;-67
2022/04/22 00:41:11;;;;;;;6.23;1.40;;;19.80;99.90;;;;;;5070324;28;20177;-67
2022/04/22 00:43:50;;;;;;;9.57;2.10;;;19.70;99.90;;;;;;5073065;28;20262;-67
2022/04/22 00:46:18;;;;;;;9.40;1.43;;;19.70;99.90;;;;;;5073037;28;20181;-67
2022/04/22 00:48:46;;;;;;;8.87;1.60;;;20.00;99.90;;;;;;5072558;28;20180;-67
2022/04/22 00:51:14;;;;;;;4.00;1.50;;;20.00;99.90;;;;;;5072163;28;20190;-67
2022/04/22 00:53:45;;;;;;;8.40;1.97;;;20.30;99.90;;;;;;5072044;28;20637;-66
2022/04/22 00:56:12;;;;;;;10.17;1.90;;;20.40;99.90;;;;;;5072443;28;20192;-66
2022/04/22 00:58:43;;;;;;;5.17;1.17;;;20.60;99.90;;;;;;5068641;28;20249;-65
2022/04/22 01:01:11;;;;;;;7.70;1.90;;;20.70;99.90;;;;;;5071127;28;20195;-66
2022/04/22 01:09:47;;;;;;;5.33;1.20;;;20.70;99.90;;;;;;5071650;28;20605;-66
2022/04/22 01:12:08;;;;;;;8.87;1.60;;;21.00;99.90;;;;;;5051740;28;20175;-67
2022/04/22 01:14:37;;;;;;;10.53;1.80;;;21.00;99.90;;;;;;5051649;28;20210;-67
2022/04/22 01:17:05;;;;;;;7.23;1.83;;;21.10;99.90;;;;;;5062894;28;20227;-67
2022/04/22 01:19:33;;;;;;;8.73;1.57;;;21.50;99.90;;;;;;5071265;28;20265;-66
2022/04/22 01:22:02;;;;;;;5.97;1.43;;;21.60;99.90;;;;;;5071723;28;20178;-66
2022/04/22 01:24:31;;;;;;;12.20;1.87;;;21.70;99.90;;;;;;5071266;28;20183;-67
2022/04/22 01:26:59;;;;;;;8.77;1.50;;;21.50;99.90;;;;;;5066969;28;20187;-67
2022/04/22 01:29:26;;;;;;;14.73;2.17;;;21.30;99.90;;;;;;5070752;28;20211;-67
2022/04/22 01:31:54;;;;;;;5.13;1.10;;;21.20;99.90;;;;;;5071513;28;20193;-66
2022/04/22 01:34:59;;;;;;;10.83;2.10;;;21.30;99.90;;;;;;5070595;28;20961;-66
2022/04/22 01:37:38;;;;;;;5.20;1.30;;;21.10;99.90;;;;;;5063312;28;20214;-66
2022/04/22 01:40:06;;;;;;;5.50;1.50;;;21.10;99.90;;;;;;5072259;28;20211;-66
2022/04/22 01:42:38;;;;;;;10.73;1.60;;;21.10;99.90;;;;;;5081181;28;20183;-67
2022/04/22 01:45:07;;;;;;;4.50;1.40;;;21.20;99.90;;;;;;5069954;28;20586;-66
2022/04/22 01:47:35;;;;;;;7.53;1.30;;;21.00;99.90;;;;;;5071316;28;20180;-66
2022/04/22 01:50:10;;;;;;;7.57;1.70;;;21.00;99.90;;;;;;5071269;28;20184;-67
2022/04/22 01:52:40;;;;;;;3.77;1.20;;;20.70;99.90;;;;;;5071260;28;20175;-67
2022/04/22 01:55:08;;;;;;;7.30;1.67;;;20.40;99.90;;;;;;5071204;28;20175;-67
2022/04/22 01:57:43;;;;;;;6.37;1.40;;;20.40;99.90;;;;;;5080917;28;20221;-67
2022/04/22 02:00:17;;;;;;;13.33;2.00;;;20.40;99.90;;;;;;5077962;28;20218;-68
2022/04/22 02:03:05;;;;;;;10.37;1.53;;;20.20;99.90;;;;;;5079275;28;20586;-67
2022/04/22 02:05:33;;;;;;;8.67;1.70;;;20.10;99.90;;;;;;5072123;28;20246;-66
2022/04/22 02:08:04;;;;;;;4.57;1.10;;;20.00;99.90;;;;;;5084008;28;20674;-67
2022/04/22 02:10:32;;;;;;;10.27;1.70;;;20.00;99.90;;;;;;5082475;28;20245;-67
2022/04/22 02:13:00;;;;;;;5.23;1.33;;;20.00;99.90;;;;;;5074519;28;20233;-66
2022/04/22 02:15:34;;;;;;;4.50;1.27;;;20.00;99.90;;;;;;5074664;28;20650;-66
2022/04/22 02:18:02;;;;;;;6.43;1.57;;;20.00;99.90;;;;;;5074154;28;20226;-66
2022/04/22 02:20:30;;;;;;;4.17;0.87;;;20.10;99.90;;;;;;5074015;28;20217;-66
2022/04/22 02:23:06;;;;;;;6.87;1.40;;;20.00;99.90;;;;;;5086666;28;20177;-66
2022/04/22 02:25:33;;;;;;;4.27;1.20;;;20.00;99.90;;;;;;5077432;28;20203;-66
2022/04/22 02:28:32;;;;;;;6.03;1.53;;;20.10;99.90;;;;;;5074271;28;20223;-66
2022/04/22 02:31:20;;;;;;;8.70;1.37;;;20.30;99.90;;;;;;5079971;28;20172;-67
2022/04/22 02:33:48;;;;;;;3.67;1.37;;;20.30;99.90;;;;;;5094667;28;20549;-67
2022/04/22 02:36:39;;;;;;;5.43;1.50;;;20.20;99.90;;;;;;5094151;28;20608;-67
2022/04/22 02:39:07;;;;;;;10.67;1.40;;;20.30;99.90;;;;;;5091427;28;20580;-67
2022/04/22 02:48:03;;;;;;;5.50;1.63;;;20.00;99.90;;;;;;5078810;28;20190;-66
2022/04/22 02:50:31;;;;;;;5.93;1.10;;;19.90;99.90;;;;;;5076106;28;20548;-67
2022/04/22 02:53:20;;;;;;;5.47;1.27;;;19.90;99.90;;;;;;5074286;28;20562;-69
2022/04/22 02:56:13;;;;;;;7.73;1.20;;;20.00;99.90;;;;;;5073796;28;20209;-69
2022/04/22 02:59:08;;;;;;;5.00;1.30;;;20.10;99.90;;;;;;5070105;28;20236;-69
2022/04/22 03:01:46;;;;;;;10.50;1.67;;;20.20;99.90;;;;;;5071493;28;20200;-70
2022/04/22 03:04:33;;;;;;;3.10;0.90;;;20.10;99.90;;;;;;5077320;28;20271;-68
2022/04/22 03:07:20;;;;;;;5.43;1.40;;;20.00;99.90;;;;;;5079311;28;20186;-69
2022/04/22 03:10:04;;;;;;;7.37;1.50;;;20.10;99.90;;;;;;5072722;28;20180;-69
2022/04/22 03:12:37;;;;;;;8.37;1.77;;;20.10;99.90;;;;;;5074595;28;20205;-68
2022/04/22 03:15:14;;;;;;;4.73;1.40;;;20.10;99.90;;;;;;5092118;28;20644;-69
2022/04/22 03:17:41;;;;;;;7.00;1.33;;;20.30;99.90;;;;;;5093694;28;20240;-70
2022/04/22 03:20:33;;;;;;;4.10;1.20;;;20.30;99.90;;;;;;5093780;28;20206;-69
2022/04/22 03:23:14;;;;;;;10.63;1.30;;;20.30;99.90;;;;;;5093796;28;20184;-69
2022/04/22 03:25:54;;;;;;;7.20;1.37;;;20.10;99.90;;;;;;5055558;28;20188;-70
2022/04/22 03:28:41;;;;;;;7.27;1.70;;;20.10;99.90;;;;;;5093503;28;20177;-70
2022/04/22 03:31:28;;;;;;;7.27;1.27;;;20.20;99.90;;;;;;5093555;28;20252;-70
2022/04/22 03:34:03;;;;;;;6.30;1.23;;;20.20;99.90;;;;;;5092747;28;20199;-70
2022/04/22 03:37:01;;;;;;;5.77;2.07;;;20.20;99.90;;;;;;5076230;28;20195;-70
2022/04/22 03:39:51;;;;;;;4.57;1.30;;;20.40;99.90;;;;;;5073327;28;20243;-70
2022/04/22 03:42:28;;;;;;;7.10;1.10;;;20.70;99.90;;;;;;5073335;28;20549;-70
2022/04/22 03:45:06;;;;;;;3.77;0.90;;;20.90;99.90;;;;;;5072860;28;20187;-70
2022/04/22 03:47:50;;;;;;;8.53;1.57;;;20.90;99.90;;;;;;5089926;28;20193;-70
2022/04/22 03:50:32;;;;;;;7.20;1.30;;;21.00;99.90;;;;;;5091316;28;20182;-71
2022/04/22 03:53:28;;;;;;;7.77;1.30;;;21.10;99.90;;;;;;5093115;28;20667;-69
2022/04/22 03:58:10;;;;;;;6.37;1.20;;;20.70;99.90;;;;;;5074768;28;20249;-70
2022/04/22 03:59:21;;;;;;;4.07;0.93;;;20.40;99.90;;;;;;5072686;28;20195;-70
2022/04/22 04:01:52;;;;;;;6.73;1.10;;;20.20;99.90;;;;;;5061975;28;20187;-69
2022/04/22 04:04:28;;;;;;;8.07;1.47;;;19.90;99.90;;;;;;5052660;28;20185;-69
2022/04/22 04:07:02;;;;;;;3.40;1.00;;;19.90;99.90;;;;;;5068359;28;20523;-68
2022/04/22 04:16:12;;;;;;;3.97;0.97;;;19.80;99.90;;;;;;5092831;28;20738;-70
2022/04/22 04:18:41;;;;;;;9.03;1.63;;;19.80;99.90;;;;;;5085888;28;20665;-70
2022/04/22 04:24:32;;;;;;;5.90;1.10;;;19.90;99.90;;;;;;5070272;28;20220;-70
2022/04/22 04:27:12;;;;;;;5.20;1.23;;;19.90;99.90;;;;;;5067650;28;20195;-68
2022/04/22 04:29:58;;;;;;;3.83;1.00;;;19.90;99.90;;;;;;5072217;28;20178;-70
2022/04/22 04:32:39;;;;;;;2.93;0.73;;;19.90;99.90;;;;;;5072374;28;20263;-69
2022/04/22 04:35:27;;;;;;;5.80;1.43;;;19.90;99.90;;;;;;5071856;28;20260;-68
2022/04/22 04:38:19;;;;;;;5.80;1.00;;;19.90;99.90;;;;;;5071876;28;20175;-68
2022/04/22 04:40:53;;;;;;;4.27;1.10;;;19.90;99.90;;;;;;5072070;28;20223;-68
2022/04/22 04:43:28;;;;;;;4.07;0.80;;;19.70;99.90;;;;;;5072197;28;20269;-67
2022/04/22 04:46:28;;;;;;;5.97;1.27;;;19.50;99.90;;;;;;5070728;28;20192;-67
2022/04/22 04:49:44;;;;;;;3.77;0.87;;;19.50;99.90;;;;;;5062276;28;20192;-67
2022/04/22 04:52:59;;;;;;;6.53;1.10;;;19.30;99.90;;;;;;5029927;28;20189;-67
2022/04/22 04:55:53;;;;;;;2.83;0.90;;;19.20;99.90;;;;;;5032811;28;20191;-68
2022/04/22 04:58:27;;;;;;;5.00;1.20;;;19.20;99.90;;;;;;5049483;28;20207;-68
2022/04/22 05:01:21;;;;;;;3.57;1.10;;;19.00;99.90;;;;;;5067503;28;20307;-66
2022/04/22 05:03:49;;;;;;;2.60;0.80;;;19.00;99.90;;;;;;5071510;28;20191;-67
2022/04/22 05:06:23;;;;;;;3.10;0.80;;;18.80;99.90;;;;;;5071888;28;20529;-67
2022/04/22 05:08:58;;;;;;;7.43;1.00;;;18.70;99.90;;;;;;5084555;28;20190;-67
2022/04/22 05:11:26;;;;;;;2.20;1.07;;;18.50;99.90;;;;;;5089796;28;20632;-67
2022/04/22 05:13:54;;;;;;;2.90;1.07;;;18.40;99.90;;;;;;5092011;28;20738;-67
2022/04/22 05:16:33;;;;;;;4.50;1.37;;;18.20;99.90;;;;;;5074467;28;20272;-67
2022/04/22 05:19:01;;;;;;;3.17;1.27;;;17.90;99.90;;;;;;5091951;28;20187;-66
2022/04/22 05:21:46;;;;;;;3.90;1.13;;;17.80;99.90;;;;;;5080623;28;20198;-68
2022/04/22 05:24:14;;;;;;;3.63;1.10;;;17.90;99.90;;;;;;5071755;28;20268;-67
2022/04/22 05:26:42;;;;;;;2.90;1.00;;;17.80;99.90;;;;;;5071636;28;20589;-69
2022/04/22 05:32:36;;;;;;;2.73;0.90;;;17.70;99.90;;;;;;5071512;28;20514;-68
2022/04/22 05:34:46;;;;;;;1.60;0.90;;;17.70;99.90;;;;;;5052012;28;20195;-67
2022/04/22 05:37:18;;;;;;;5.57;1.13;;;17.70;99.90;;;;;;5053919;28;20177;-67
2022/04/22 05:39:47;;;;;;;5.17;1.20;;;17.80;99.90;;;;;;5054338;28;20219;-68
2022/04/22 05:42:28;;;;;;;4.10;1.10;;;17.80;99.90;;;;;;5066447;28;20209;-67
2022/04/22 05:45:19;;;;;;;4.67;1.20;;;17.80;99.90;;;;;;5092455;28;20219;-67
2022/04/22 05:47:53;;;;;;;4.77;1.50;;;17.80;99.90;;;;;;5086159;28;20263;-68
2022/04/22 05:50:22;;;;;;;3.93;0.87;;;17.70;99.90;;;;;;5074812;28;20195;-68
2022/04/22 05:53:06;;;;;;;5.07;1.00;;;17.80;99.90;;;;;;5075254;28;20271;-67
2022/04/22 05:55:46;;;;;;;6.23;1.40;;;17.80;99.90;;;;;;5075260;28;20180;-67
2022/04/22 05:58:37;;;;;;;2.83;1.10;;;17.80;99.90;;;;;;5086554;28;20185;-66
2022/04/22 06:01:05;;;;;;;3.23;1.10;;;17.90;99.90;;;;;;5093517;28;20234;-67
2022/04/22 06:03:36;;;;;;;3.97;1.10;;;17.90;99.90;;;;;;5095265;28;20183;-67
2022/04/22 06:06:42;;;;;;;3.10;0.80;;;17.90;99.90;;;;;;5085954;28;20188;-67
2022/04/22 06:11:55;;;;;;;7.27;1.20;;;18.00;99.90;;;;;;5071371;28;20270;-68
2022/04/22 06:14:26;;;;;;;4.60;1.50;;;18.00;99.90;;;;;;5074867;28;20604;-67
2022/04/22 06:17:07;;;;;;;3.53;0.80;;;18.10;99.90;;;;;;5074588;28;20704;-68
2022/04/22 06:19:35;;;;;;;7.10;1.13;;;18.10;99.90;;;;;;5094084;28;20242;-68
2022/04/22 06:22:04;;;;;;;3.30;1.57;;;18.10;99.90;;;;;;5094746;28;20295;-68
2022/04/22 06:24:32;;;;;;;4.73;1.20;;;18.00;99.90;;;;;;5094887;28;20176;-68
2022/04/22 06:27:00;;;;;;;3.17;1.00;;;18.00;99.90;;;;;;5095021;28;20667;-68
2022/04/22 06:29:32;;;;;;;3.20;0.90;;;18.00;99.90;;;;;;5079360;28;20206;-67
2022/04/22 06:32:04;;;;;;;3.70;1.03;;;18.00;99.90;;;;;;5086398;28;20544;-68
2022/04/22 06:34:32;;;;;;;3.63;1.10;;;18.00;99.90;;;;;;5094693;28;20364;-68
2022/04/22 06:37:14;;;;;;;8.67;1.30;;;17.90;99.90;;;;;;5093406;28;20187;-67
2022/04/22 06:48:09;;;;;;;8.63;1.60;;;18.00;99.90;;;;;;5073245;28;20184;-68
2022/04/22 06:50:37;;;;;;;7.60;2.27;;;18.00;99.90;;;;;;5074103;28;20242;-68
2022/04/22 06:53:05;;;;;;;4.27;1.13;;;18.00;99.90;;;;;;5073585;28;20271;-67
2022/04/22 06:55:33;;;;;;;5.73;1.50;;;18.00;99.90;;;;;;5072888;28;20563;-67
2022/04/22 06:58:11;;;;;;;7.60;1.77;;;17.90;99.90;;;;;;5087507;28;20180;-68
2022/04/22 07:00:55;;;;;;;6.77;1.47;;;17.90;99.90;;;;;;5073865;28;20272;-67
2022/04/22 07:03:23;;;;;;;4.97;1.53;;;17.90;99.90;;;;;;5073737;28;20274;-67
2022/04/22 07:06:24;;;;;;;7.67;1.50;;;17.90;99.90;;;;;;5073617;28;20258;-68
2022/04/22 07:08:52;;;;;;;5.97;1.27;;;17.80;99.90;;;;;;5064301;28;20188;-67
2022/04/22 07:11:32;;;;;;;2.77;1.37;;;17.80;99.90;;;;;;5073383;28;20188;-67
2022/04/22 07:14:04;;;;;;;4.77;1.33;;;17.70;99.90;;;;;;5072208;28;20190;-68
2022/04/22 07:16:53;;;;;;;4.20;1.30;;;17.70;99.90;;;;;;5073683;28;20693;-67
2022/04/22 07:19:21;;;;;;;5.07;1.10;;;17.70;99.90;;;;;;5090270;28;20207;-69
2022/04/22 07:22:21;;;;;;;6.03;1.30;;;17.60;99.90;;;;;;5093222;28;20179;-68
2022/04/22 07:24:48;;;;;;;9.43;2.10;;;17.60;99.90;;;;;;5070448;28;20549;-67
2022/04/22 07:27:24;;;;;;;7.97;1.10;;;17.60;99.90;;;;;;5073043;28;20285;-68
2022/04/22 07:29:51;;;;;;;5.23;1.10;;;17.70;99.90;;;;;;5069885;28;20179;-68
2022/04/22 07:32:53;;;;;;;3.40;1.40;;;17.60;99.90;;;;;;5073468;28;20185;-68
2022/04/22 07:35:21;;;;;;;7.03;1.20;;;17.70;99.90;;;;;;5077139;28;20175;-68
2022/04/22 07:38:14;;;;;;;7.57;1.60;;;17.70;99.90;;;;;;5092136;28;20179;-68
2022/04/22 07:40:50;;;;;;;2.90;1.40;;;17.60;99.90;;;;;;5072994;28;20216;-68
2022/04/22 07:49:20;;;;;;;3.63;1.43;;;17.30;99.90;;;;;;5074178;28;20305;-68
2022/04/22 07:52:22;;;;;;;5.37;1.50;;;17.10;99.90;;;;;;5071700;28;20244;-68
2022/04/22 07:55:03;;;;;;;6.50;1.50;;;17.00;99.90;;;;;;5073905;28;20176;-67
2022/04/22 07:57:31;;;;;;;6.63;1.13;;;17.00;99.90;;;;;;5070803;28;20267;-68
2022/04/22 08:00:11;;;;;;;3.17;0.90;;;16.90;99.90;;;;;;5071938;28;20692;-68
2022/04/22 08:02:42;;;;;;;4.63;0.83;;;16.80;99.90;;;;;;5073052;28;20184;-68
2022/04/22 08:05:11;;;;;;;6.60;1.13;;;16.70;99.90;;;;;;5072866;28;20172;-68
2022/04/22 08:07:39;;;;;;;2.87;0.90;;;16.70;99.90;;;;;;5080526;28;20180;-68
2022/04/22 08:10:08;;;;;;;4.33;0.90;;;16.70;99.90;;;;;;5072658;28;20168;-67
2022/04/22 08:12:39;;;;;;;3.53;0.97;;;16.60;99.90;;;;;;5072655;28;20221;-67
2022/04/22 08:15:41;;;;;;;3.53;1.20;;;16.70;99.90;;;;;;5072695;28;20187;-67
2022/04/22 08:18:18;;;;;;;5.17;1.30;;;16.60;99.90;;;;;;5073027;28;20255;-68
2022/04/22 08:20:46;;;;;;;5.63;1.50;;;16.60;99.90;;;;;;5074011;28;20243;-68
2022/04/22 08:23:14;;;;;;;4.47;1.10;;;16.60;99.90;;;;;;5064705;28;20179;-68
2022/04/22 08:25:42;;;;;;;4.50;1.47;;;16.60;99.90;;;;;;5080493;28;20592;-68
2022/04/22 08:28:09;;;;;;;3.50;1.10;;;16.60;99.90;;;;;;5072380;28;20576;-67
2022/04/22 08:30:41;;;;;;;5.50;1.20;;;16.60;99.90;;;;;;5088468;28;20190;-67
2022/04/22 08:33:13;;;;;;;4.93;1.60;;;16.60;99.90;;;;;;5057062;28;20237;-68
2022/04/22 08:36:08;;;;;;;5.80;1.50;;;16.60;99.90;;;;;;5080984;28;20312;-66
2022/04/22 08:38:36;;;;;;;9.70;1.40;;;16.60;99.90;;;;;;5084773;28;20665;-67
2022/04/22 08:41:14;;;;;;;5.97;1.20;;;16.60;99.90;;;;;;5078357;28;20224;-69
2022/04/22 08:43:42;;;;;;;2.70;0.93;;;16.60;99.90;;;;;;5071874;28;20225;-68
2022/04/22 08:52:00;;;;;;;5.03;1.40;;;16.50;99.90;;;;;;5073329;28;20186;-68
2022/04/22 08:54:52;;;;;;;6.67;1.47;;;16.50;99.90;;;;;;5073102;28;20569;-68
2022/04/22 08:57:54;;;;;;;8.50;1.23;;;16.50;99.90;;;;;;5082600;28;20260;-69
2022/04/22 09:01:05;;;;;;;6.07;1.10;;;16.50;99.90;;;;;;5092340;28;20226;-70
2022/04/22 09:03:42;;;;;;;6.57;1.60;;;16.50;99.90;;;;;;5084963;28;20184;-68
2022/04/22 09:06:28;;;;;;;4.30;1.63;;;16.50;99.90;;;;;;5073690;28;20175;-69
2022/04/22 09:09:04;;;;;;;2.67;1.10;;;16.50;99.90;;;;;;5091888;28;20183;-69
2022/04/22 09:11:36;;;;;;;3.67;1.33;;;16.50;99.90;;;;;;5080001;28;20179;-68
2022/04/22 09:14:20;;;;;;;5.67;1.10;;;16.50;99.90;;;;;;5073241;28;20186;-70
2022/04/22 09:17:32;;;;;;;4.07;1.57;;;16.50;99.90;;;;;;5072874;28;20216;-69
2022/04/22 09:20:33;;;;;;;3.43;1.33;;;16.50;99.90;;;;;;5067641;28;20231;-70
2022/04/22 09:23:01;;;;;;;4.20;1.07;;;16.50;99.90;;;;;;5047533;28;20192;-69
2022/04/22 09:25:30;;;;;;;3.87;1.30;;;16.40;99.90;;;;;;5052843;28;20169;-70
2022/04/22 09:28:18;;;;;;;5.40;1.30;;;16.40;99.90;;;;;;5052905;28;20173;-70
2022/04/22 09:31:20;;;;;;;2.43;1.10;;;16.30;99.90;;;;;;5061219;28;20521;-70
2022/04/22 09:34:26;;;;;;;4.27;1.10;;;16.30;99.90;;;;;;5086057;28;20209;-69
2022/04/22 09:43:13;;;;;;;4.47;1.10;;;16.20;99.90;;;;;;5093323;28;20174;-70
2022/04/22 09:45:41;;;;;;;4.77;1.47;;;16.30;99.90;;;;;;5091528;28;20168;-70
2022/04/22 09:48:20;;;;;;;4.83;0.80;;;16.20;99.90;;;;;;5072885;28;20264;-70
2022/04/22 09:50:56;;;;;;;2.40;0.90;;;16.30;99.90;;;;;;5072896;28;20171;-69
2022/04/22 09:53:33;;;;;;;3.23;1.00;;;16.20;99.90;;;;;;5052803;28;20180;-68
2022/04/22 09:56:07;;;;;;;2.67;1.47;;;16.10;99.90;;;;;;5052681;28;20180;-69
2022/04/22 09:58:35;;;;;;;4.30;1.07;;;16.10;99.90;;;;;;5052805;28;20652;-70
2022/04/22 10:01:05;;;;;;;7.07;1.60;;;16.10;99.90;;;;;;5052409;28;20223;-68
2022/04/22 10:03:38;;;;;;;4.37;1.30;;;16.10;99.90;;;;;;5052629;28;20217;-70
2022/04/22 10:06:06;;;;;;;2.63;1.17;;;16.00;99.90;;;;;;5052743;28;20176;-69
2022/04/22 10:08:39;;;;;;;4.03;1.17;;;16.10;99.90;;;;;;5052644;28;20215;-69
2022/04/22 10:11:08;;;;;;;5.60;1.50;;;16.10;99.90;;;;;;5052682;28;20241;-69
2022/04/22 10:13:46;;;;;;;4.30;1.30;;;16.10;99.90;;;;;;5051587;28;20185;-69
2022/04/22 10:16:15;;;;;;;3.13;1.10;;;16.10;99.90;;;;;;5052235;28;20220;-70
2022/04/22 10:18:44;;;;;;;2.50;1.00;;;16.00;99.90;;;;;;5051620;28;20188;-69
2022/04/22 10:21:12;;;;;;;6.03;1.20;;;16.00;99.90;;;;;;5052533;28;20239;-70
2022/04/22 10:23:41;;;;;;;3.73;1.10;;;16.00;99.90;;;;;;5055546;28;20233;-70
2022/04/22 10:26:08;;;;;;;4.13;0.90;;;16.00;99.90;;;;;;5056074;28;20262;-69
2022/04/22 10:28:38;;;;;;;6.87;1.00;;;16.00;99.90;;;;;;5055797;28;20180;-69
2022/04/22 10:31:06;;;;;;;3.53;0.90;;;16.00;99.90;;;;;;5069518;28;20198;-70
2022/04/22 10:34:06;;;;;;;3.97;1.27;;;16.00;99.90;;;;;;5075929;28;20183;-69
2022/04/22 10:36:34;;;;;;;4.67;1.13;;;15.90;99.90;;;;;;5073317;28;20270;-70
2022/04/22 10:39:02;;;;;;;4.30;1.20;;;15.90;99.90;;;;;;5075945;28;20176;-70
2022/04/22 10:41:45;;;;;;;4.73;0.83;;;15.90;99.90;;;;;;5075726;28;20550;-70
2022/04/22 10:47:15;;;;;;;4.20;1.20;;;16.00;99.90;;;;;;5075946;28;20195;-70
2022/04/22 10:49:46;;;;;;;5.40;1.43;;;16.00;99.90;;;;;;5075247;28;20187;-69
2022/04/22 10:52:18;;;;;;;2.87;1.10;;;16.00;99.90;;;;;;5075796;28;20195;-70
2022/04/22 10:54:55;;;;;;;6.87;1.23;;;16.00;99.90;;;;;;5075720;28;20629;-70
2022/04/22 10:57:25;;;;;;;3.27;0.90;;;16.10;99.90;;;;;;5075744;28;20215;-70
2022/04/22 11:00:27;;;;;;;4.30;1.10;;;16.10;99.90;;;;;;5074992;28;20705;-70
2022/04/22 11:03:16;;;;;;;3.10;1.13;;;16.10;99.90;;;;;;5075482;28;20716;-71
2022/04/22 11:06:01;;;;;;;2.93;1.17;;;16.00;99.90;;;;;;5075431;28;20226;-70
2022/04/22 11:08:35;;;;;;;7.27;1.30;;;16.00;99.90;;;;;;5075381;28;20180;-69
2022/04/22 11:11:19;;;;;;;6.33;1.20;;;16.10;99.90;;;;;;5075637;28;20543;-70
2022/04/22 11:13:50;;;;;;;3.60;0.97;;;16.10;99.90;;;;;;5075385;28;20176;-70
2022/04/22 11:16:24;;;;;;;3.67;1.20;;;16.10;99.90;;;;;;5075106;28;20222;-69
2022/04/22 11:19:19;;;;;;;3.33;1.20;;;16.10;99.90;;;;;;5075419;28;20184;-70
2022/04/22 11:21:55;;;;;;;3.53;1.10;;;16.00;99.90;;;;;;5074470;28;20188;-70
2022/04/22 11:24:31;;;;;;;6.77;1.20;;;16.00;99.90;;;;;;5075056;28;20207;-71
2022/04/22 11:27:14;;;;;;;3.73;0.87;;;16.00;99.90;;;;;;5075098;28;20204;-70
2022/04/22 11:29:43;;;;;;;3.67;1.30;;;16.00;99.90;;;;;;5072456;28;20180;-71
2022/04/22 11:32:21;;;;;;;5.57;1.27;;;16.00;99.90;;;;;;5075051;28;20259;-71
2022/04/22 11:35:01;;;;;;;3.67;1.13;;;16.00;99.90;;;;;;5073967;28;20176;-70
2022/04/22 11:37:29;;;;;;;8.77;2.13;;;16.00;99.90;;;;;;5076962;28;20190;-69
2022/04/22 11:39:56;;;;;;;3.43;1.90;;;16.10;99.90;;;;;;5091644;28;20203;-69
2022/04/22 11:42:25;;;;;;;4.17;1.60;;;16.10;99.90;;;;;;5088047;28;20176;-70
2022/04/22 11:45:09;;;;;;;3.43;1.60;;;16.00;99.90;;;;;;5073603;28;20176;-69
2022/04/22 11:47:37;;;;;;;5.73;1.80;;;16.00;99.90;;;;;;5071908;28;20222;-70
2022/04/22 11:50:06;;;;;;;4.90;1.87;;;16.00;99.90;;;;;;5086335;28;20237;-70
2022/04/22 11:52:34;;;;;;;2.93;1.47;;;16.00;99.90;;;;;;5088437;28;20680;-70
2022/04/22 11:55:04;;;;;;;5.30;1.90;;;15.90;99.90;;;;;;5075680;28;20542;-70
2022/04/22 11:57:39;;;;;;;4.50;2.03;;;15.90;99.90;;;;;;5081106;28;20183;-70
2022/04/22 12:05:52;;;;;;;4.93;2.20;;;15.90;99.90;;;;;;5069824;28;20190;-69
2022/04/22 12:08:21;;;;;;;6.13;2.50;;;15.90;99.90;;;;;;5074043;28;20176;-69
2022/04/22 12:10:50;;;;;;;9.73;4.33;;;15.80;99.90;;;;;;5082318;28;20179;-70
2022/04/22 12:13:18;;;;;;;11.30;4.70;;;15.80;99.90;;;;;;5074472;28;20545;-70
2022/04/22 12:15:48;;;;;;;7.73;3.50;;;15.90;99.90;;;;;;5076336;28;20187;-70
2022/04/22 12:18:34;;;;;;;7.53;3.40;;;15.80;99.90;;;;;;5077209;28;20220;-70
2022/04/22 12:21:06;;;;;;;3.43;1.70;;;15.80;99.90;;;;;;5073341;28;20322;-69
2022/04/22 12:23:42;;;;;;;3.00;1.57;;;15.80;99.90;;;;;;5074172;28;20176;-71
2022/04/22 12:26:27;;;;;;;5.20;1.90;;;15.80;99.90;;;;;;5073865;28;20218;-70
2022/04/22 12:29:11;;;;;;;3.93;1.40;;;15.80;99.90;;;;;;5087902;28;20176;-70
2022/04/22 12:31:44;;;;;;;3.33;1.17;;;15.80;99.90;;;;;;5093658;28;20202;-71
2022/04/22 12:34:14;;;;;;;2.30;1.37;;;15.70;99.90;;;;;;5094092;28;20202;-70
2022/04/22 12:37:01;;;;;;;2.60;1.53;;;15.80;99.90;;;;;;5093958;28;20216;-70
2022/04/22 12:39:41;;;;;;;2.93;1.17;;;15.80;99.90;;;;;;5089255;28;20200;-70
2022/04/22 12:42:26;;;;;;;2.97;1.47;;;15.70;99.90;;;;;;5073772;28;20188;-71
2022/04/22 12:54:09;;;;;;;4.60;1.70;;;15.80;99.90;;;;;;5093455;28;20215;-70
2022/04/22 12:56:37;;;;;;;2.77;1.43;;;15.70;99.90;;;;;;5072232;28;20192;-71
2022/04/22 12:59:06;;;;;;;5.27;1.40;;;15.70;99.90;;;;;;5077788;28;20213;-70
2022/04/22 13:01:38;;;;;;;4.90;1.60;;;15.70;99.90;;;;;;5093281;28;20592;-69
2022/04/22 13:04:07;;;;;;;2.60;1.50;;;15.70;99.90;;;;;;5093509;28;20191;-70
2022/04/22 13:06:47;;;;;;;7.57;1.67;;;15.60;99.90;;;;;;5093512;28;20170;-70
2022/04/22 13:09:16;;;;;;;5.77;1.70;;;15.60;99.90;;;;;;5090103;28;20579;-70
2022/04/22 13:11:44;;;;;;;6.57;1.53;;;15.60;99.90;;;;;;5073576;28;20274;-70
2022/04/22 13:14:13;;;;;;;7.07;2.20;;;15.50;99.90;;;;;;5073366;28;20586;-70
2022/04/22 13:16:40;;;;;;;3.23;1.33;;;15.50;99.90;;;;;;5073114;28;20238;-71
2022/04/22 13:19:08;;;;;;;9.70;1.37;;;15.60;99.90;;;;;;5089424;28;20189;-70
2022/04/22 13:21:37;;;;;;;5.63;1.63;;;15.50;99.90;;;;;;5071965;28;20183;-70
2022/04/22 13:24:05;;;;;;;5.07;1.50;;;15.50;99.90;;;;;;5073101;28;20190;-70
2022/04/22 13:26:32;;;;;;;6.07;1.97;;;15.50;99.90;;;;;;5073044;28;20303;-70
2022/04/22 13:29:01;;;;;;;5.03;2.23;;;15.50;99.90;;;;;;5073643;28;20625;-70
2022/04/22 13:31:28;;;;;;;10.90;2.87;;;15.50;99.90;;;;;;5087326;28;20205;-70
2022/04/22 13:33:56;;;;;;;5.03;1.83;;;15.50;99.90;;;;;;5073081;28;20629;-70
2022/04/22 13:36:24;;;;;;;5.90;2.20;;;15.50;99.90;;;;;;5073128;28;20184;-70
2022/04/22 13:38:51;;;;;;;4.77;1.60;;;15.50;99.90;;;;;;5073214;28;20182;-71
2022/04/22 13:41:19;;;;;;;5.90;2.20;;;15.50;99.90;;;;;;5092114;28;20208;-69
2022/04/22 13:43:47;;;;;;;6.80;2.17;;;15.50;99.90;;;;;;5092896;28;20249;-70
2022/04/22 13:54:31;;;;;;;5.50;1.90;;;15.50;99.90;;;;;;5072778;28;20184;-70
2022/04/22 13:56:59;;;;;;;7.20;1.77;;;15.50;99.90;;;;;;5073024;28;20184;-70
2022/04/22 13:59:26;;;;;;;2.07;1.30;;;15.50;99.90;;;;;;5084160;28;20617;-70
2022/04/22 14:01:54;;;;;;;4.90;1.33;;;15.50;99.90;;;;;;5097215;28;20181;-69
2022/04/22 14:04:22;;;;;;;6.93;1.57;;;15.50;99.90;;;;;;5096816;28;20171;-70
2022/04/22 14:06:50;;;;;;;4.97;1.50;;;15.40;99.90;;;;;;5096457;28;20179;-71
2022/04/22 14:09:18;;;;;;;2.80;1.17;;;15.40;99.90;;;;;;5076242;28;20210;-70
2022/04/22 14:11:46;;;;;;;7.40;1.60;;;15.40;99.90;;;;;;5076510;28;20176;-70
2022/04/22 14:14:14;;;;;;;4.00;1.43;;;15.30;99.90;;;;;;5093422;28;20195;-70
2022/04/22 14:16:41;;;;;;;5.13;1.73;;;15.30;99.90;;;;;;5095859;28;20305;-71
2022/04/22 14:19:09;;;;;;;4.47;1.67;;;15.30;99.90;;;;;;5086720;28;20184;-71
2022/04/22 14:21:37;;;;;;;3.20;1.33;;;15.20;99.90;;;;;;5076096;28;20187;-70
2022/04/22 14:24:05;;;;;;;5.67;1.80;;;15.20;99.90;;;;;;5076014;28;20187;-69
2022/04/22 14:26:33;;;;;;;5.77;1.77;;;15.20;99.90;;;;;;5076096;28;20260;-71
2022/04/22 14:29:01;;;;;;;6.43;1.70;;;15.20;99.90;;;;;;5080274;28;20641;-70
2022/04/22 14:31:28;;;;;;;3.53;1.30;;;15.20;99.90;;;;;;5096240;28;20220;-70
2022/04/22 14:33:56;;;;;;;3.13;1.73;;;15.20;99.90;;;;;;5096265;28;20182;-70
2022/04/22 14:36:24;;;;;;;2.37;1.47;;;15.20;99.90;;;;;;5096188;28;20701;-70
2022/04/22 14:38:52;;;;;;;3.03;1.27;;;15.30;99.90;;;;;;5092054;28;20176;-69
2022/04/22 14:41:20;;;;;;;3.97;1.43;;;15.20;99.90;;;;;;5085160;28;20215;-71
2022/04/22 14:43:48;;;;;;;5.60;1.60;;;15.30;99.90;;;;;;5095777;28;20185;-70
2022/04/22 14:46:16;;;;;;;3.70;1.70;;;15.20;99.90;;;;;;5095908;28;20171;-70
2022/04/22 14:48:45;;;;;;;2.70;1.70;;;15.20;99.90;;;;;;5092875;28;20206;-69